createdAt,value
2023-03-16T00:00:16.641Z,1009.27
2023-03-16T00:01:16.630Z,1009.24
2023-03-16T00:02:16.638Z,1009.22
2023-03-16T00:03:16.646Z,1009.21
2023-03-16T00:04:16.604Z,1009.19
2023-03-16T00:05:16.606Z,1009.17
2023-03-16T00:06:16.580Z,1009.18
2023-03-16T00:07:16.581Z,1009.18
2023-03-16T00:08:16.563Z,1009.17
2023-03-16T00:09:16.549Z,1009.18
2023-03-16T00:10:16.539Z,1009.16
2023-03-16T00:11:16.526Z,1009.15
2023-03-16T00:12:16.553Z,1009.14
2023-03-16T00:13:16.520Z,1009.12
2023-03-16T00:14:16.529Z,1009.11
2023-03-16T00:15:16.480Z,1009.11
2023-03-16T00:16:16.523Z,1009.12
2023-03-16T00:17:16.458Z,1009.12
2023-03-16T00:18:16.453Z,1009.11
2023-03-16T00:19:16.508Z,1009.12
2023-03-16T00:20:16.450Z,1009.11
2023-03-16T00:21:16.426Z,1009.10
2023-03-16T00:22:16.412Z,1009.12
2023-03-16T00:23:16.398Z,1009.13
2023-03-16T00:24:16.396Z,1009.14
2023-03-16T00:25:16.423Z,1009.15
2023-03-16T00:26:16.393Z,1009.16
2023-03-16T00:27:16.365Z,1009.15
2023-03-16T00:28:16.351Z,1009.13
2023-03-16T00:29:16.334Z,1009.10
2023-03-16T00:30:16.342Z,1009.08
2023-03-16T00:31:16.391Z,1009.07
2023-03-16T00:32:16.315Z,1009.04
2023-03-16T00:33:16.297Z,1009.02
2023-03-16T00:34:16.288Z,1009.01
2023-03-16T00:35:16.284Z,1009.01
2023-03-16T00:36:16.275Z,1009.03
2023-03-16T00:37:16.275Z,1009.03
2023-03-16T00:38:16.248Z,1009.04
2023-03-16T00:39:16.243Z,1009.03
2023-03-16T00:40:16.231Z,1009.02
2023-03-16T00:41:16.213Z,1009.05
2023-03-16T00:42:16.214Z,1009.06
2023-03-16T00:43:16.211Z,1009.09
2023-03-16T00:44:16.184Z,1009.09
2023-03-16T00:45:16.169Z,1009.08
2023-03-16T00:46:16.326Z,1009.08
2023-03-16T00:47:16.141Z,1009.05
2023-03-16T00:48:16.135Z,1009.05
2023-03-16T00:49:16.127Z,1009.06
2023-03-16T00:50:16.127Z,1009.06
2023-03-16T00:51:16.104Z,1009.05
2023-03-16T00:52:16.149Z,1009.03
2023-03-16T00:53:16.098Z,1009.03
2023-03-16T00:54:16.080Z,1009.01
2023-03-16T00:55:16.068Z,1009.00
2023-03-16T00:56:16.069Z,1008.99
2023-03-16T00:57:16.056Z,1008.98
2023-03-16T00:58:16.046Z,1008.96
2023-03-16T00:59:16.033Z,1008.99
2023-03-16T01:00:16.026Z,1008.98
2023-03-16T01:01:16.118Z,1008.99
2023-03-16T01:02:15.996Z,1009.00
2023-03-16T01:03:16.016Z,1009.01
2023-03-16T01:04:15.972Z,1009.02
2023-03-16T01:05:15.973Z,1009.05
2023-03-16T01:06:15.950Z,1009.07
2023-03-16T01:07:15.937Z,1009.11
2023-03-16T01:08:15.944Z,1009.12
2023-03-16T01:09:15.920Z,1009.13
2023-03-16T01:10:15.911Z,1009.15
2023-03-16T01:11:15.912Z,1009.15
2023-03-16T01:12:15.899Z,1009.14
2023-03-16T01:13:15.876Z,1009.15
2023-03-16T01:14:15.874Z,1009.14
2023-03-16T01:15:15.874Z,1009.11
2023-03-16T01:16:15.920Z,1009.09
2023-03-16T01:17:15.840Z,1009.06
2023-03-16T01:18:15.829Z,1009.04
2023-03-16T01:19:15.849Z,1008.99
2023-03-16T01:20:15.813Z,1008.97
2023-03-16T01:21:15.822Z,1008.94
2023-03-16T01:22:15.800Z,1008.91
2023-03-16T01:23:15.791Z,1008.88
2023-03-16T01:24:15.771Z,1008.85
2023-03-16T01:25:15.772Z,1008.82
2023-03-16T01:26:15.773Z,1008.79
2023-03-16T01:27:15.734Z,1008.76
2023-03-16T01:28:15.732Z,1008.74
2023-03-16T01:29:15.724Z,1008.77
2023-03-16T01:30:15.710Z,1008.78
2023-03-16T01:31:15.827Z,1008.78
2023-03-16T01:32:15.693Z,1008.79
2023-03-16T01:33:15.688Z,1008.79
2023-03-16T01:34:15.680Z,1008.80
2023-03-16T01:35:15.662Z,1008.78
2023-03-16T01:36:15.665Z,1008.78
2023-03-16T01:37:15.633Z,1008.79
2023-03-16T01:38:15.632Z,1008.78
2023-03-16T01:39:15.619Z,1008.76
2023-03-16T01:40:15.611Z,1008.72
2023-03-16T01:41:15.609Z,1008.70
2023-03-16T01:42:15.596Z,1008.67
2023-03-16T01:43:15.575Z,1008.63
2023-03-16T01:44:15.581Z,1008.60
2023-03-16T01:45:15.561Z,1008.59
2023-03-16T01:46:15.610Z,1008.55
2023-03-16T01:47:15.575Z,1008.54
2023-03-16T01:48:15.539Z,1008.54
2023-03-16T01:49:15.514Z,1008.48
2023-03-16T01:50:15.517Z,1008.46
2023-03-16T01:51:15.501Z,1008.43
2023-03-16T01:52:15.516Z,1008.43
2023-03-16T01:53:15.524Z,1008.40
2023-03-16T01:54:15.479Z,1008.40
2023-03-16T01:55:15.464Z,1008.39
2023-03-16T01:56:15.446Z,1008.39
2023-03-16T01:57:15.478Z,1008.35
2023-03-16T01:58:15.485Z,1008.38
2023-03-16T01:59:15.464Z,1008.36
2023-03-16T02:00:15.447Z,1008.38
2023-03-16T02:01:15.462Z,1008.42
2023-03-16T02:02:15.431Z,1008.42
2023-03-16T02:03:15.394Z,1008.42
2023-03-16T02:04:15.430Z,1008.43
2023-03-16T02:05:15.355Z,1008.40
2023-03-16T02:06:15.364Z,1008.40
2023-03-16T02:07:15.344Z,1008.38
2023-03-16T02:08:15.324Z,1008.38
2023-03-16T02:09:15.321Z,1008.38
2023-03-16T02:10:15.322Z,1008.36
2023-03-16T02:11:15.294Z,1008.32
2023-03-16T02:12:15.304Z,1008.31
2023-03-16T02:13:15.292Z,1008.28
2023-03-16T02:14:15.265Z,1008.24
2023-03-16T02:15:15.250Z,1008.23
2023-03-16T02:16:15.338Z,1008.24
2023-03-16T02:17:15.237Z,1008.21
2023-03-16T02:18:15.243Z,1008.22
2023-03-16T02:19:15.207Z,1008.21
2023-03-16T02:20:15.266Z,1008.19
2023-03-16T02:21:15.198Z,1008.20
2023-03-16T02:22:15.180Z,1008.15
2023-03-16T02:23:15.179Z,1008.16
2023-03-16T02:24:15.158Z,1008.13
2023-03-16T02:25:15.152Z,1008.12
2023-03-16T02:26:15.151Z,1008.10
2023-03-16T02:27:15.171Z,1008.08
2023-03-16T02:28:15.137Z,1008.06
2023-03-16T02:29:15.129Z,1008.02
2023-03-16T02:30:15.114Z,1008.02
2023-03-16T02:31:15.124Z,1008.00
2023-03-16T02:32:15.084Z,1008.02
2023-03-16T02:33:15.071Z,1008.01
2023-03-16T02:34:15.067Z,1008.01
2023-03-16T02:35:15.101Z,1008.00
2023-03-16T02:36:15.045Z,1008.01
2023-03-16T02:37:15.030Z,1007.97
2023-03-16T02:38:15.025Z,1007.96
2023-03-16T02:39:15.013Z,1007.93
2023-03-16T02:40:14.998Z,1007.95
2023-03-16T02:41:15.007Z,1007.92
2023-03-16T02:42:14.979Z,1007.93
2023-03-16T02:43:14.978Z,1007.91
2023-03-16T02:44:14.979Z,1007.89
2023-03-16T02:45:14.954Z,1007.89
2023-03-16T02:46:15.015Z,1007.88
2023-03-16T02:47:14.923Z,1007.89
2023-03-16T02:48:14.921Z,1007.89
2023-03-16T02:49:14.905Z,1007.92
2023-03-16T02:50:14.899Z,1007.91
2023-03-16T02:51:14.904Z,1007.89
2023-03-16T02:52:14.894Z,1007.92
2023-03-16T02:53:14.861Z,1007.90
2023-03-16T02:54:14.861Z,1007.92
2023-03-16T02:55:14.844Z,1007.93
2023-03-16T02:56:14.848Z,1007.92
2023-03-16T02:57:14.826Z,1007.94
2023-03-16T02:58:14.814Z,1007.94
2023-03-16T02:59:14.812Z,1007.93
2023-03-16T03:00:14.799Z,1007.94
2023-03-16T03:01:14.796Z,1007.92
2023-03-16T03:02:14.776Z,1007.89
2023-03-16T03:03:14.804Z,1007.85
2023-03-16T03:04:14.768Z,1007.78
2023-03-16T03:05:14.755Z,1007.77
2023-03-16T03:06:14.759Z,1007.74
2023-03-16T03:07:14.729Z,1007.75
2023-03-16T03:08:14.721Z,1007.74
2023-03-16T03:09:14.716Z,1007.75
2023-03-16T03:10:14.714Z,1007.73
2023-03-16T03:11:14.706Z,1007.75
2023-03-16T03:12:14.684Z,1007.70
2023-03-16T03:13:14.676Z,1007.66
2023-03-16T03:14:14.664Z,1007.63
2023-03-16T03:15:14.658Z,1007.63
2023-03-16T03:16:14.749Z,1007.64
2023-03-16T03:17:14.621Z,1007.65
2023-03-16T03:18:14.720Z,1007.66
2023-03-16T03:19:14.623Z,1007.70
2023-03-16T03:20:14.604Z,1007.70
2023-03-16T03:21:14.597Z,1007.69
2023-03-16T03:22:14.584Z,1007.68
2023-03-16T03:23:14.566Z,1007.70
2023-03-16T03:24:14.571Z,1007.68
2023-03-16T03:25:14.564Z,1007.66
2023-03-16T03:26:14.538Z,1007.66
2023-03-16T03:27:14.525Z,1007.65
2023-03-16T03:28:14.527Z,1007.63
2023-03-16T03:29:14.517Z,1007.63
2023-03-16T03:30:14.511Z,1007.62
2023-03-16T03:31:14.502Z,1007.64
2023-03-16T03:32:14.481Z,1007.63
2023-03-16T03:33:14.495Z,1007.61
2023-03-16T03:34:14.455Z,1007.60
2023-03-16T03:35:14.450Z,1007.57
2023-03-16T03:36:14.452Z,1007.56
2023-03-16T03:37:14.419Z,1007.55
2023-03-16T03:38:14.419Z,1007.53
2023-03-16T03:39:14.412Z,1007.53
2023-03-16T03:40:14.430Z,1007.52
2023-03-16T03:41:14.391Z,1007.54
2023-03-16T03:42:14.384Z,1007.51
2023-03-16T03:43:14.366Z,1007.53
2023-03-16T03:44:14.378Z,1007.56
2023-03-16T03:45:14.365Z,1007.54
2023-03-16T03:46:14.445Z,1007.57
2023-03-16T03:47:23.441Z,1007.55
2023-03-16T03:48:14.333Z,1007.55
2023-03-16T03:49:14.332Z,1007.56
2023-03-16T03:50:14.310Z,1007.55
2023-03-16T03:51:14.277Z,1007.55
2023-03-16T03:52:14.273Z,1007.52
2023-03-16T03:53:14.279Z,1007.51
2023-03-16T03:54:14.257Z,1007.49
2023-03-16T03:55:14.241Z,1007.47
2023-03-16T03:56:14.238Z,1007.48
2023-03-16T03:57:14.221Z,1007.44
2023-03-16T03:58:14.287Z,1007.45
2023-03-16T03:59:14.212Z,1007.43
2023-03-16T04:00:14.195Z,1007.42
2023-03-16T04:01:14.180Z,1007.42
2023-03-16T04:02:14.292Z,1007.41
2023-03-16T04:03:14.328Z,1007.38
2023-03-16T04:04:14.153Z,1007.38
2023-03-16T04:05:14.154Z,1007.37
2023-03-16T04:06:14.142Z,1007.36
2023-03-16T04:07:14.122Z,1007.36
2023-03-16T04:08:14.109Z,1007.37
2023-03-16T04:09:14.098Z,1007.37
2023-03-16T04:10:14.085Z,1007.37
2023-03-16T04:11:14.075Z,1007.39
2023-03-16T04:12:14.080Z,1007.42
2023-03-16T04:13:14.051Z,1007.42
2023-03-16T04:14:14.075Z,1007.40
2023-03-16T04:15:14.026Z,1007.38
2023-03-16T04:16:14.044Z,1007.35
2023-03-16T04:17:14.026Z,1007.30
2023-03-16T04:18:14.014Z,1007.31
2023-03-16T04:19:13.992Z,1007.24
2023-03-16T04:20:13.986Z,1007.24
2023-03-16T04:21:13.923Z,1007.23
2023-03-16T04:22:13.958Z,1007.20
2023-03-16T04:23:13.972Z,1007.19
2023-03-16T04:24:13.959Z,1007.15
2023-03-16T04:25:13.934Z,1007.15
2023-03-16T04:26:13.870Z,1007.12
2023-03-16T04:27:13.923Z,1007.10
2023-03-16T04:28:13.866Z,1007.09
2023-03-16T04:29:13.893Z,1007.06
2023-03-16T04:30:13.894Z,1007.08
2023-03-16T04:31:13.989Z,1007.03
2023-03-16T04:32:13.865Z,1007.04
2023-03-16T04:33:13.862Z,1007.02
2023-03-16T04:34:13.817Z,1007.04
2023-03-16T04:35:13.832Z,1007.02
2023-03-16T04:36:13.914Z,1007.00
2023-03-16T04:37:13.756Z,1006.98
2023-03-16T04:38:13.816Z,1006.95
2023-03-16T04:39:13.791Z,1006.95
2023-03-16T04:40:13.723Z,1006.94
2023-03-16T04:41:13.785Z,1006.94
2023-03-16T04:42:13.781Z,1006.92
2023-03-16T04:43:13.717Z,1006.95
2023-03-16T04:44:13.748Z,1006.91
2023-03-16T04:45:13.727Z,1006.89
2023-03-16T04:46:13.766Z,1006.86
2023-03-16T04:47:13.708Z,1006.85
2023-03-16T04:48:13.705Z,1006.85
2023-03-16T04:49:13.712Z,1006.86
2023-03-16T04:50:13.639Z,1006.86
2023-03-16T04:51:13.687Z,1006.87
2023-03-16T04:52:13.622Z,1006.84
2023-03-16T04:53:13.651Z,1006.85
2023-03-16T04:54:13.580Z,1006.84
2023-03-16T04:55:13.639Z,1006.85
2023-03-16T04:56:13.611Z,1006.83
2023-03-16T04:57:13.614Z,1006.84
2023-03-16T04:58:13.599Z,1006.85
2023-03-16T04:59:13.590Z,1006.85
2023-03-16T05:00:13.567Z,1006.84
2023-03-16T05:01:13.622Z,1006.89
2023-03-16T05:02:13.558Z,1006.84
2023-03-16T05:03:13.537Z,1006.89
2023-03-16T05:04:19.222Z,1006.88
2023-03-16T05:05:13.567Z,1006.82
2023-03-16T05:06:13.515Z,1006.85
2023-03-16T05:07:13.522Z,1006.88
2023-03-16T05:08:13.490Z,1006.87
2023-03-16T05:09:13.493Z,1006.86
2023-03-16T05:10:13.474Z,1006.87
2023-03-16T05:11:13.490Z,1006.86
2023-03-16T05:12:13.435Z,1006.88
2023-03-16T05:13:13.387Z,1006.89
2023-03-16T05:14:13.407Z,1006.85
2023-03-16T05:15:13.369Z,1006.88
2023-03-16T05:16:13.412Z,1006.83
2023-03-16T05:17:13.349Z,1006.84
2023-03-16T05:18:13.335Z,1006.83
2023-03-16T05:19:13.337Z,1006.83
2023-03-16T05:20:15.968Z,1006.79
2023-03-16T05:21:13.376Z,1006.78
2023-03-16T05:22:13.321Z,1006.75
2023-03-16T05:23:13.313Z,1006.75
2023-03-16T05:24:13.347Z,1006.72
2023-03-16T05:25:13.319Z,1006.73
2023-03-16T05:26:13.324Z,1006.75
2023-03-16T05:27:13.317Z,1006.77
2023-03-16T05:28:13.248Z,1006.76
2023-03-16T05:29:14.048Z,1006.78
2023-03-16T05:30:13.260Z,1006.76
2023-03-16T05:31:13.335Z,1006.75
2023-03-16T05:32:13.194Z,1006.77
2023-03-16T05:33:13.205Z,1006.76
2023-03-16T05:34:13.182Z,1006.74
2023-03-16T05:35:13.182Z,1006.73
2023-03-16T05:36:13.296Z,1006.79
2023-03-16T05:37:13.157Z,1006.75
2023-03-16T05:38:13.143Z,1006.79
2023-03-16T05:39:13.131Z,1006.78
2023-03-16T05:40:13.130Z,1006.84
2023-03-16T05:41:13.111Z,1006.81
2023-03-16T05:42:13.108Z,1006.83
2023-03-16T05:43:13.095Z,1006.83
2023-03-16T05:44:13.070Z,1006.84
2023-03-16T05:45:13.099Z,1006.86
2023-03-16T05:46:13.138Z,1006.83
2023-03-16T05:47:13.059Z,1006.85
2023-03-16T05:48:13.062Z,1006.88
2023-03-16T05:49:13.039Z,1006.87
2023-03-16T05:50:13.008Z,1006.86
2023-03-16T05:51:13.018Z,1006.87
2023-03-16T05:52:12.997Z,1006.86
2023-03-16T05:53:12.978Z,1006.82
2023-03-16T05:54:12.973Z,1006.81
2023-03-16T05:55:12.973Z,1006.83
2023-03-16T05:56:12.966Z,1006.85
2023-03-16T05:57:12.948Z,1006.92
2023-03-16T05:58:12.930Z,1006.91
2023-03-16T05:59:12.921Z,1006.91
2023-03-16T06:00:12.908Z,1006.92
2023-03-16T06:01:12.923Z,1006.89
2023-03-16T06:02:12.883Z,1006.90
2023-03-16T06:03:12.919Z,1006.94
2023-03-16T06:04:12.948Z,1006.86
2023-03-16T06:05:12.870Z,1006.93
2023-03-16T06:06:12.857Z,1006.94
2023-03-16T06:07:12.834Z,1006.93
2023-03-16T06:08:12.831Z,1006.92
2023-03-16T06:09:12.841Z,1006.86
2023-03-16T06:10:12.832Z,1006.86
2023-03-16T06:11:12.789Z,1006.86
2023-03-16T06:12:12.792Z,1006.89
2023-03-16T06:13:12.765Z,1006.92
2023-03-16T06:14:12.759Z,1006.84
2023-03-16T06:15:12.757Z,1006.88
2023-03-16T06:16:12.812Z,1006.90
2023-03-16T06:17:12.726Z,1006.85
2023-03-16T06:18:12.732Z,1006.90
2023-03-16T06:19:12.710Z,1006.90
2023-03-16T06:20:12.710Z,1006.92
2023-03-16T06:21:12.681Z,1006.91
2023-03-16T06:22:12.733Z,1006.96
2023-03-16T06:23:12.665Z,1006.94
2023-03-16T06:24:12.656Z,1006.97
2023-03-16T06:25:12.670Z,1006.97
2023-03-16T06:26:12.632Z,1006.97
2023-03-16T06:27:12.611Z,1006.96
2023-03-16T06:28:12.611Z,1006.93
2023-03-16T06:29:12.605Z,1006.92
2023-03-16T06:30:12.578Z,1006.94
2023-03-16T06:31:12.636Z,1006.92
2023-03-16T06:32:12.566Z,1006.93
2023-03-16T06:33:12.556Z,1006.88
2023-03-16T06:34:12.539Z,1006.91
2023-03-16T06:35:12.553Z,1006.88
2023-03-16T06:36:12.611Z,1006.89
2023-03-16T06:37:12.520Z,1006.87
2023-03-16T06:38:12.497Z,1006.88
2023-03-16T06:39:12.483Z,1006.89
2023-03-16T06:40:12.469Z,1006.89
2023-03-16T06:41:12.471Z,1006.90
2023-03-16T06:42:12.463Z,1006.93
2023-03-16T06:43:12.457Z,1006.91
2023-03-16T06:44:12.430Z,1006.89
2023-03-16T06:45:12.428Z,1006.91
2023-03-16T06:46:12.638Z,1006.95
2023-03-16T06:47:12.403Z,1006.91
2023-03-16T06:48:12.417Z,1006.93
2023-03-16T06:49:12.376Z,1006.93
2023-03-16T06:50:12.386Z,1006.96
2023-03-16T06:51:12.394Z,1006.91
2023-03-16T06:52:12.335Z,1006.92
2023-03-16T06:53:12.353Z,1006.93
2023-03-16T06:54:12.317Z,1006.91
2023-03-16T06:55:12.346Z,1006.90
2023-03-16T06:56:12.311Z,1006.96
2023-03-16T06:57:12.294Z,1006.94
2023-03-16T06:58:12.276Z,1006.98
2023-03-16T06:59:12.301Z,1006.98
2023-03-16T07:00:12.270Z,1007.01
2023-03-16T07:01:12.302Z,1006.98
2023-03-16T07:02:12.255Z,1006.96
2023-03-16T07:03:12.229Z,1006.98
2023-03-16T07:04:12.235Z,1006.99
2023-03-16T07:05:12.223Z,1006.94
2023-03-16T07:06:12.221Z,1006.97
2023-03-16T07:07:12.197Z,1006.96
2023-03-16T07:08:12.169Z,1006.94
2023-03-16T07:09:12.163Z,1006.92
2023-03-16T07:10:12.148Z,1006.94
2023-03-16T07:11:12.161Z,1006.95
2023-03-16T07:12:12.136Z,1006.91
2023-03-16T07:13:12.145Z,1006.91
2023-03-16T07:14:12.111Z,1006.93
2023-03-16T07:15:12.108Z,1006.87
2023-03-16T07:16:12.112Z,1006.95
2023-03-16T07:17:12.100Z,1006.97
2023-03-16T07:18:12.065Z,1006.97
2023-03-16T07:19:12.047Z,1006.99
2023-03-16T07:20:12.034Z,1006.97
2023-03-16T07:21:12.034Z,1007.02
2023-03-16T07:22:12.015Z,1007.00
2023-03-16T07:23:12.044Z,1007.02
2023-03-16T07:24:11.993Z,1007.03
2023-03-16T07:25:11.986Z,1007.03
2023-03-16T07:26:11.993Z,1007.05
2023-03-16T07:27:12.632Z,1007.02
2023-03-16T07:28:11.988Z,1007.01
2023-03-16T07:29:11.990Z,1007.07
2023-03-16T07:30:11.968Z,1007.08
2023-03-16T07:31:11.943Z,1007.06
2023-03-16T07:32:11.940Z,1007.07
2023-03-16T07:33:11.981Z,1007.06
2023-03-16T07:34:11.914Z,1007.05
2023-03-16T07:35:11.889Z,1007.05
2023-03-16T07:36:11.942Z,1007.06
2023-03-16T07:37:11.874Z,1007.05
2023-03-16T07:38:11.875Z,1007.05
2023-03-16T07:39:11.837Z,1007.05
2023-03-16T07:40:11.836Z,1007.09
2023-03-16T07:41:11.830Z,1007.04
2023-03-16T07:42:11.834Z,1007.10
2023-03-16T07:43:11.803Z,1007.13
2023-03-16T07:44:11.830Z,1007.08
2023-03-16T07:45:11.781Z,1007.10
2023-03-16T07:46:11.913Z,1007.10
2023-03-16T07:47:11.773Z,1007.15
2023-03-16T07:48:11.747Z,1007.13
2023-03-16T07:49:11.736Z,1007.08
2023-03-16T07:50:11.745Z,1007.04
2023-03-16T07:51:11.727Z,1007.13
2023-03-16T07:52:11.708Z,1007.13
2023-03-16T07:53:11.707Z,1007.15
2023-03-16T07:54:11.676Z,1007.13
2023-03-16T07:55:11.682Z,1007.13
2023-03-16T07:56:11.661Z,1007.15
2023-03-16T07:57:11.680Z,1007.16
2023-03-16T07:58:11.650Z,1007.18
2023-03-16T07:59:11.648Z,1007.16
2023-03-16T08:00:11.629Z,1007.17
2023-03-16T08:01:11.617Z,1007.14
2023-03-16T08:02:11.725Z,1007.14
2023-03-16T08:03:11.650Z,1007.17
2023-03-16T08:04:11.574Z,1007.13
2023-03-16T08:05:11.633Z,1007.13
2023-03-16T08:06:11.577Z,1007.12
2023-03-16T08:07:11.582Z,1007.13
2023-03-16T08:08:11.541Z,1007.10
2023-03-16T08:09:11.542Z,1007.09
2023-03-16T08:10:11.508Z,1007.10
2023-03-16T08:11:11.509Z,1007.06
2023-03-16T08:12:11.491Z,1007.02
2023-03-16T08:13:11.530Z,1007.06
2023-03-16T08:14:11.496Z,1007.02
2023-03-16T08:15:11.487Z,1007.03
2023-03-16T08:16:11.487Z,1007.02
2023-03-16T08:17:11.492Z,1007.04
2023-03-16T08:18:11.471Z,1007.04
2023-03-16T08:19:11.441Z,1006.99
2023-03-16T08:20:11.420Z,1006.98
2023-03-16T08:21:11.428Z,1006.97
2023-03-16T08:22:11.728Z,1007.01
2023-03-16T08:23:11.406Z,1007.00
2023-03-16T08:24:11.395Z,1006.93
2023-03-16T08:25:11.374Z,1006.97
2023-03-16T08:26:11.370Z,1006.99
2023-03-16T08:27:11.400Z,1006.94
2023-03-16T08:28:11.359Z,1006.95
2023-03-16T08:29:11.457Z,1006.95
2023-03-16T08:30:11.348Z,1006.99
2023-03-16T08:31:11.404Z,1006.96
2023-03-16T08:32:11.298Z,1006.97
2023-03-16T08:33:11.316Z,1006.96
2023-03-16T08:34:11.297Z,1006.99
2023-03-16T08:35:11.277Z,1006.99
2023-03-16T08:36:11.287Z,1006.98
2023-03-16T08:37:11.278Z,1006.99
2023-03-16T08:38:11.264Z,1007.00
2023-03-16T08:39:12.156Z,1007.00
2023-03-16T08:40:11.256Z,1007.01
2023-03-16T08:41:11.269Z,1007.02
2023-03-16T08:42:11.215Z,1007.03
2023-03-16T08:43:11.175Z,1007.05
2023-03-16T08:44:11.197Z,1007.03
2023-03-16T08:45:13.984Z,1007.07
2023-03-16T08:46:11.192Z,1007.03
2023-03-16T08:47:11.235Z,1007.03
2023-03-16T08:48:11.140Z,1007.05
2023-03-16T08:49:11.123Z,1007.04
2023-03-16T08:50:11.134Z,1007.05
2023-03-16T08:51:11.101Z,1007.07
2023-03-16T08:52:11.175Z,1007.08
2023-03-16T08:53:11.080Z,1007.08
2023-03-16T08:54:11.091Z,1007.13
2023-03-16T08:55:11.068Z,1007.11
2023-03-16T08:56:11.097Z,1007.09
2023-03-16T08:57:11.044Z,1007.12
2023-03-16T08:58:11.024Z,1007.08
2023-03-16T08:59:23.615Z,1007.13
2023-03-16T09:00:11.024Z,1007.11
2023-03-16T09:01:10.993Z,1007.16
2023-03-16T09:02:11.040Z,1007.13
2023-03-16T09:03:10.976Z,1007.17
2023-03-16T09:04:11.035Z,1007.18
2023-03-16T09:05:10.947Z,1007.21
2023-03-16T09:06:10.941Z,1007.23
2023-03-16T09:07:10.940Z,1007.24
2023-03-16T09:08:10.930Z,1007.23
2023-03-16T09:09:10.904Z,1007.20
2023-03-16T09:10:10.901Z,1007.21
2023-03-16T09:11:10.886Z,1007.19
2023-03-16T09:12:10.898Z,1007.18
2023-03-16T09:13:10.922Z,1007.18
2023-03-16T09:14:10.871Z,1007.17
2023-03-16T09:15:10.840Z,1007.20
2023-03-16T09:16:10.880Z,1007.19
2023-03-16T09:17:10.819Z,1007.18
2023-03-16T09:18:10.828Z,1007.14
2023-03-16T09:19:10.814Z,1007.12
2023-03-16T09:20:21.901Z,1007.13
2023-03-16T09:21:10.784Z,1007.11
2023-03-16T09:22:10.775Z,1007.06
2023-03-16T09:23:10.796Z,1007.05
2023-03-16T09:24:10.774Z,1007.10
2023-03-16T09:25:10.765Z,1007.09
2023-03-16T09:26:10.770Z,1007.11
2023-03-16T09:27:10.799Z,1007.12
2023-03-16T09:28:10.713Z,1007.17
2023-03-16T09:29:10.717Z,1007.17
2023-03-16T09:30:10.701Z,1007.21
2023-03-16T09:31:10.726Z,1007.23
2023-03-16T09:32:10.705Z,1007.24
2023-03-16T09:33:10.737Z,1007.20
2023-03-16T09:34:10.665Z,1007.18
2023-03-16T09:35:10.641Z,1007.17
2023-03-16T09:36:10.710Z,1007.16
2023-03-16T09:37:10.661Z,1007.18
2023-03-16T09:38:10.666Z,1007.19
2023-03-16T09:39:10.591Z,1007.17
2023-03-16T09:40:12.162Z,1007.14
2023-03-16T09:41:10.601Z,1007.15
2023-03-16T09:42:10.615Z,1007.13
2023-03-16T09:43:10.589Z,1007.12
2023-03-16T09:44:10.544Z,1007.13
2023-03-16T09:45:10.552Z,1007.10
2023-03-16T09:46:10.596Z,1007.07
2023-03-16T09:47:10.560Z,1007.09
2023-03-16T09:48:10.524Z,1007.08
2023-03-16T09:49:10.505Z,1007.05
2023-03-16T09:50:10.519Z,1007.08
2023-03-16T09:51:10.569Z,1007.03
2023-03-16T09:52:10.483Z,1007.03
2023-03-16T09:53:10.453Z,1006.99
2023-03-16T09:54:10.454Z,1006.97
2023-03-16T09:55:10.462Z,1007.01
2023-03-16T09:56:10.428Z,1007.02
2023-03-16T09:57:10.449Z,1007.04
2023-03-16T09:58:10.414Z,1007.06
2023-03-16T09:59:10.402Z,1007.08
2023-03-16T10:00:10.400Z,1007.09
2023-03-16T10:01:10.415Z,1007.05
2023-03-16T10:02:10.369Z,1006.87
2023-03-16T10:03:10.357Z,1007.03
2023-03-16T10:04:10.493Z,1007.03
2023-03-16T10:05:10.351Z,1006.94
2023-03-16T10:06:10.324Z,1006.94
2023-03-16T10:07:10.340Z,1006.93
2023-03-16T10:08:10.328Z,1006.96
2023-03-16T10:09:10.307Z,1006.94
2023-03-16T10:10:10.281Z,1006.93
2023-03-16T10:11:10.276Z,1006.92
2023-03-16T10:12:10.261Z,1006.91
2023-03-16T10:13:10.267Z,1006.92
2023-03-16T10:14:10.242Z,1006.95
2023-03-16T10:15:10.368Z,1006.95
2023-03-16T10:16:10.239Z,1006.97
2023-03-16T10:17:10.289Z,1006.94
2023-03-16T10:18:12.358Z,1006.92
2023-03-16T10:19:10.210Z,1006.94
2023-03-16T10:20:10.199Z,1006.92
2023-03-16T10:21:10.156Z,1006.94
2023-03-16T10:22:10.185Z,1006.93
2023-03-16T10:23:10.160Z,1006.89
2023-03-16T10:24:10.131Z,1006.87
2023-03-16T10:25:10.123Z,1006.85
2023-03-16T10:26:10.136Z,1006.84
2023-03-16T10:27:10.099Z,1006.81
2023-03-16T10:28:10.112Z,1006.80
2023-03-16T10:29:10.084Z,1006.79
2023-03-16T10:30:10.072Z,1006.82
2023-03-16T10:31:10.087Z,1006.85
2023-03-16T10:32:10.077Z,1006.84
2023-03-16T10:33:10.385Z,1006.83
2023-03-16T10:34:10.093Z,1006.85
2023-03-16T10:35:10.037Z,1006.87
2023-03-16T10:36:10.052Z,1006.81
2023-03-16T10:37:10.013Z,1006.87
2023-03-16T10:38:09.993Z,1006.90
2023-03-16T10:39:09.978Z,1006.91
2023-03-16T10:40:09.976Z,1006.92
2023-03-16T10:41:09.948Z,1006.93
2023-03-16T10:42:10.764Z,1006.89
2023-03-16T10:43:09.925Z,1006.94
2023-03-16T10:44:09.927Z,1006.92
2023-03-16T10:45:09.920Z,1006.90
2023-03-16T10:46:09.966Z,1006.86
2023-03-16T10:47:09.929Z,1006.85
2023-03-16T10:48:09.883Z,1006.85
2023-03-16T10:49:09.869Z,1006.83
2023-03-16T10:50:09.861Z,1006.82
2023-03-16T10:51:09.853Z,1006.79
2023-03-16T10:52:09.868Z,1006.74
2023-03-16T10:53:09.825Z,1006.69
2023-03-16T10:54:09.827Z,1006.65
2023-03-16T10:55:09.824Z,1006.62
2023-03-16T10:56:09.809Z,1006.59
2023-03-16T10:57:09.811Z,1006.53
2023-03-16T10:58:09.790Z,1006.50
2023-03-16T10:59:09.769Z,1006.47
2023-03-16T11:00:09.787Z,1006.42
2023-03-16T11:01:09.793Z,1006.37
2023-03-16T11:02:09.757Z,1006.32
2023-03-16T11:03:09.729Z,1006.28
2023-03-16T11:04:09.749Z,1006.25
2023-03-16T11:05:09.717Z,1006.25
2023-03-16T11:06:09.727Z,1006.27
2023-03-16T11:07:09.701Z,1006.27
2023-03-16T11:08:09.678Z,1006.27
2023-03-16T11:09:10.480Z,1006.26
2023-03-16T11:10:09.656Z,1006.23
2023-03-16T11:11:09.658Z,1006.22
2023-03-16T11:12:09.646Z,1006.15
2023-03-16T11:13:09.636Z,1006.15
2023-03-16T11:14:09.663Z,1006.15
2023-03-16T11:15:17.054Z,1006.14
2023-03-16T11:16:09.637Z,1006.12
2023-03-16T11:17:09.590Z,1006.08
2023-03-16T11:18:09.593Z,1006.05
2023-03-16T11:19:09.570Z,1006.06
2023-03-16T11:20:09.602Z,1006.02
2023-03-16T11:21:09.549Z,1006.02
2023-03-16T11:22:09.553Z,1006.02
2023-03-16T11:23:09.518Z,1006.02
2023-03-16T11:24:09.509Z,1006.05
2023-03-16T11:25:09.531Z,1006.06
2023-03-16T11:26:09.522Z,1006.08
2023-03-16T11:27:09.484Z,1006.05
2023-03-16T11:28:09.469Z,1006.04
2023-03-16T11:29:09.494Z,1006.00
2023-03-16T11:30:09.459Z,1006.00
2023-03-16T11:31:09.601Z,1005.97
2023-03-16T11:32:09.492Z,1005.93
2023-03-16T11:33:09.462Z,1005.91
2023-03-16T11:34:09.459Z,1005.88
2023-03-16T11:35:09.395Z,1005.88
2023-03-16T11:36:09.438Z,1005.90
2023-03-16T11:37:09.372Z,1005.90
2023-03-16T11:38:09.375Z,1005.89
2023-03-16T11:39:09.377Z,1005.89
2023-03-16T11:40:09.368Z,1005.89
2023-03-16T11:41:09.345Z,1005.86
2023-03-16T11:42:09.337Z,1005.85
2023-03-16T11:43:09.316Z,1005.78
2023-03-16T11:44:09.325Z,1005.78
2023-03-16T11:45:09.315Z,1005.76
2023-03-16T11:46:09.318Z,1005.72
2023-03-16T11:47:09.329Z,1005.69
2023-03-16T11:49:19.564Z,1005.64
2023-03-16T11:50:20.520Z,1005.62
2023-03-16T11:51:20.531Z,1005.59
2023-03-16T11:52:20.480Z,1005.58
2023-03-16T11:53:20.496Z,1005.50
2023-03-16T11:54:20.456Z,1005.51
2023-03-16T11:55:20.469Z,1005.52
2023-03-16T11:56:20.436Z,1005.56
2023-03-16T11:57:20.424Z,1005.54
2023-03-16T11:58:20.422Z,1005.55
2023-03-16T11:59:20.406Z,1005.52
2023-03-16T12:00:20.407Z,1005.51
2023-03-16T12:01:20.389Z,1005.51
2023-03-16T12:02:20.622Z,1005.52
2023-03-16T12:03:20.438Z,1005.44
2023-03-16T12:04:20.421Z,1005.47
2023-03-16T12:05:20.357Z,1005.48
2023-03-16T12:06:23.518Z,1005.45